Time;durP1;ratioP1;P1;durP2;ratioP2;P2;SDS_P1;SDS_P2;PMS_P1;PMS_P2;Temp;Humidity;BMP_temperature;BMP_pressure;BME280_temperature;BME280_humidity;BME280_pressure;Samples;Min_cycle;Max_cycle;Signal;HPM_P1;HPM_P2
2023/07/08 00:02:24;;;;;;;1.85;1.50;;;;;;;;;;5882210;28;9999842;-72
2023/07/08 00:05:25;;;;;;;1.90;1.63;;;;;;;;;;6228592;28;20474;-71
2023/07/08 00:08:25;;;;;;;2.53;1.70;;;;;;;;;;6230943;28;20022;-70
2023/07/08 00:11:26;;;;;;;2.83;1.50;;;;;;;;;;6230945;28;20057;-73
2023/07/08 00:14:26;;;;;;;2.28;1.70;;;;;;;;;;6224806;28;20509;-69
2023/07/08 00:17:27;;;;;;;2.00;1.70;;;;;;;;;;6218437;28;20028;-69
2023/07/08 00:20:36;;;;;;;1.70;1.60;;;;;;;;;;6224445;28;20033;-71
2023/07/08 00:23:37;;;;;;;1.45;1.35;;;;;;;;;;6226778;28;20045;-71
2023/07/08 00:26:37;;;;;;;1.60;1.43;;;;;;;;;;6226751;28;20527;-70
2023/07/08 00:29:38;;;;;;;2.05;1.50;;;;;;;;;;6222341;28;20684;-73
2023/07/08 00:32:41;;;;;;;4.07;1.83;;;;;;;;;;6225322;28;20029;-71
2023/07/08 00:35:43;;;;;;;2.42;1.70;;;;;;;;;;6223325;28;20259;-70
2023/07/08 00:38:45;;;;;;;1.67;1.52;;;;;;;;;;6226030;28;20385;-69
2023/07/08 00:41:45;;;;;;;3.88;1.52;;;;;;;;;;6226045;28;20034;-71
2023/07/08 00:44:46;;;;;;;3.38;1.77;;;;;;;;;;6226319;28;20029;-71
2023/07/08 00:47:46;;;;;;;1.98;1.58;;;;;;;;;;6225080;28;20034;-70
2023/07/08 00:50:46;;;;;;;3.60;1.80;;;;;;;;;;6226377;28;20029;-72
2023/07/08 00:53:47;;;;;;;1.80;1.40;;;;;;;;;;6224060;28;20029;-72
2023/07/08 00:56:56;;;;;;;3.63;1.67;;;;;;;;;;6225551;28;20033;-71
2023/07/08 01:00:03;;;;;;;2.85;1.73;;;;;;;;;;6226653;28;21138;-70
2023/07/08 01:03:04;;;;;;;2.58;1.50;;;;;;;;;;6239283;28;20017;-70
2023/07/08 01:06:05;;;;;;;1.70;1.33;;;;;;;;;;6221586;28;20053;-72
2023/07/08 01:09:07;;;;;;;1.58;1.33;;;;;;;;;;6224015;28;20052;-70
2023/07/08 01:12:09;;;;;;;2.53;1.70;;;;;;;;;;6227498;28;20033;-68
2023/07/08 01:15:09;;;;;;;2.53;1.50;;;;;;;;;;6224254;28;20013;-69
2023/07/08 01:18:11;;;;;;;1.85;1.73;;;;;;;;;;6223306;28;21656;-73
2023/07/08 01:21:32;;;;;;;2.45;1.63;;;;;;;;;;6233785;28;20112;-73
2023/07/08 01:24:38;;;;;;;2.47;1.60;;;;;;;;;;6230736;28;20025;-73
2023/07/08 01:27:40;;;;;;;2.20;1.65;;;;;;;;;;6233283;28;20136;-72
2023/07/08 01:30:42;;;;;;;2.80;1.63;;;;;;;;;;6229012;28;20423;-72
2023/07/08 01:33:42;;;;;;;1.67;1.55;;;;;;;;;;6229833;28;20025;-73
2023/07/08 01:36:52;;;;;;;2.33;1.53;;;;;;;;;;6232022;28;20040;-73
2023/07/08 01:39:53;;;;;;;2.73;1.50;;;;;;;;;;6229814;28;20030;-73
2023/07/08 01:42:53;;;;;;;2.40;1.43;;;;;;;;;;6229445;28;20064;-74
2023/07/08 01:45:54;;;;;;;2.97;1.50;;;;;;;;;;6231306;28;20043;-72
2023/07/08 01:48:54;;;;;;;1.85;1.65;;;;;;;;;;6233908;28;20100;-74
2023/07/08 01:51:55;;;;;;;1.80;1.38;;;;;;;;;;6232582;28;20033;-73
2023/07/08 01:54:55;;;;;;;2.72;1.73;;;;;;;;;;6228707;28;20084;-74
2023/07/08 01:57:55;;;;;;;1.63;1.50;;;;;;;;;;6228660;28;20090;-72
2023/07/08 02:00:56;;;;;;;1.60;1.40;;;;;;;;;;6227065;28;20021;-73
2023/07/08 02:03:56;;;;;;;1.93;1.50;;;;;;;;;;6231564;28;20041;-74
2023/07/08 02:06:58;;;;;;;1.77;1.30;;;;;;;;;;6229335;28;20017;-72
2023/07/08 02:09:58;;;;;;;2.70;1.48;;;;;;;;;;6249377;28;20053;-72
2023/07/08 02:12:58;;;;;;;1.77;1.67;;;;;;;;;;6231975;28;20040;-73
2023/07/08 02:15:59;;;;;;;1.73;1.40;;;;;;;;;;6235012;28;20021;-71
2023/07/08 02:18:59;;;;;;;3.88;1.60;;;;;;;;;;6237826;28;20368;-73
2023/07/08 02:22:00;;;;;;;2.20;1.40;;;;;;;;;;6233290;28;20386;-73
2023/07/08 02:25:00;;;;;;;2.72;1.58;;;;;;;;;;6229207;28;20108;-72
2023/07/08 02:28:00;;;;;;;2.07;1.37;;;;;;;;;;6233547;28;20115;-73
2023/07/08 02:31:03;;;;;;;1.87;1.40;;;;;;;;;;6232519;28;20013;-73
2023/07/08 02:34:04;;;;;;;1.95;1.63;;;;;;;;;;6230050;28;20197;-71
2023/07/08 02:37:04;;;;;;;2.53;1.63;;;;;;;;;;6228174;28;20029;-74
2023/07/08 02:40:04;;;;;;;1.83;1.37;;;;;;;;;;6225267;28;20453;-73
2023/07/08 02:43:05;;;;;;;1.85;1.58;;;;;;;;;;6229722;28;20014;-72
2023/07/08 02:46:05;;;;;;;2.93;1.47;;;;;;;;;;6231525;28;20132;-72
2023/07/08 02:49:05;;;;;;;3.20;1.60;;;;;;;;;;6228475;28;20025;-73
2023/07/08 02:52:06;;;;;;;2.20;1.43;;;;;;;;;;6229797;28;20017;-73
2023/07/08 02:55:06;;;;;;;2.17;1.50;;;;;;;;;;6228038;28;20484;-73
2023/07/08 02:58:06;;;;;;;1.90;1.50;;;;;;;;;;6230905;28;20370;-74
2023/07/08 03:01:08;;;;;;;2.63;1.50;;;;;;;;;;6232500;28;20044;-72
2023/07/08 03:04:12;;;;;;;3.30;1.90;;;;;;;;;;6228765;28;20400;-75
2023/07/08 03:07:13;;;;;;;3.17;1.63;;;;;;;;;;6229694;28;20833;-73
2023/07/08 03:10:13;;;;;;;1.63;1.48;;;;;;;;;;6227330;28;20081;-73
2023/07/08 03:13:14;;;;;;;2.27;1.30;;;;;;;;;;6229597;28;20109;-73
2023/07/08 03:16:14;;;;;;;2.57;1.73;;;;;;;;;;6231765;28;20391;-73
2023/07/08 03:19:15;;;;;;;1.60;1.40;;;;;;;;;;6222104;28;20013;-72
2023/07/08 03:22:15;;;;;;;2.67;1.45;;;;;;;;;;6231179;28;20013;-72
2023/07/08 03:25:15;;;;;;;2.20;1.70;;;;;;;;;;6231778;28;20033;-73
2023/07/08 03:28:16;;;;;;;1.47;1.37;;;;;;;;;;6230138;28;20026;-73
2023/07/08 03:31:16;;;;;;;1.98;1.52;;;;;;;;;;6228864;28;20267;-74
2023/07/08 03:34:17;;;;;;;3.47;1.73;;;;;;;;;;6227102;28;20065;-73
2023/07/08 03:37:17;;;;;;;2.08;1.58;;;;;;;;;;6229509;28;20115;-72
2023/07/08 03:40:17;;;;;;;1.80;1.57;;;;;;;;;;6229729;28;20152;-72
2023/07/08 03:43:18;;;;;;;4.20;1.80;;;;;;;;;;6228520;28;20565;-70
2023/07/08 03:46:19;;;;;;;2.43;1.37;;;;;;;;;;6226101;28;20040;-71
2023/07/08 03:49:23;;;;;;;2.70;1.60;;;;;;;;;;6224408;28;20029;-72
2023/07/08 03:52:23;;;;;;;3.38;1.70;;;;;;;;;;6229581;28;20025;-72
2023/07/08 03:55:23;;;;;;;2.33;1.80;;;;;;;;;;6229655;28;20574;-72
2023/07/08 03:58:23;;;;;;;2.17;1.57;;;;;;;;;;6228048;28;20501;-71
2023/07/08 04:01:24;;;;;;;1.53;1.30;;;;;;;;;;6229885;28;20051;-70
2023/07/08 04:04:25;;;;;;;2.17;1.40;;;;;;;;;;6221540;28;20040;-72
2023/07/08 04:07:25;;;;;;;1.60;1.30;;;;;;;;;;6227668;28;20026;-70
2023/07/08 04:10:25;;;;;;;3.30;1.43;;;;;;;;;;6230505;28;20465;-71
2023/07/08 04:13:25;;;;;;;3.00;1.70;;;;;;;;;;6237258;28;20025;-73
2023/07/08 04:16:31;;;;;;;1.73;1.43;;;;;;;;;;5887850;28;9999749;-71
2023/07/08 04:19:31;;;;;;;2.25;1.95;;;;;;;;;;6233655;28;20112;-72
2023/07/08 04:22:31;;;;;;;3.50;2.40;;;;;;;;;;6235666;28;20014;-72
2023/07/08 04:25:32;;;;;;;2.90;1.97;;;;;;;;;;6229720;28;20033;-71
2023/07/08 04:28:32;;;;;;;2.63;2.23;;;;;;;;;;6226846;28;20013;-72
2023/07/08 04:31:32;;;;;;;2.13;1.90;;;;;;;;;;6232161;28;20606;-73
2023/07/08 04:34:32;;;;;;;2.90;1.93;;;;;;;;;;6230872;28;20029;-72
2023/07/08 04:37:33;;;;;;;2.47;1.83;;;;;;;;;;6230815;28;20022;-72
2023/07/08 04:40:33;;;;;;;3.43;2.20;;;;;;;;;;6226868;28;20478;-71
2023/07/08 04:43:33;;;;;;;2.57;2.33;;;;;;;;;;6229705;28;20018;-72
2023/07/08 04:46:38;;;;;;;2.00;1.80;;;;;;;;;;6233437;28;20100;-73
2023/07/08 04:49:43;;;;;;;2.38;1.90;;;;;;;;;;6232107;28;20097;-69
2023/07/08 04:52:43;;;;;;;3.33;1.77;;;;;;;;;;6230425;28;20075;-73
2023/07/08 04:55:45;;;;;;;1.60;1.50;;;;;;;;;;6231083;28;20018;-71
2023/07/08 04:58:46;;;;;;;2.20;1.52;;;;;;;;;;6224875;28;20042;-72
2023/07/08 05:01:46;;;;;;;3.10;1.63;;;;;;;;;;6226695;28;20102;-71
2023/07/08 05:04:46;;;;;;;2.43;1.87;;;;;;;;;;6228052;28;20555;-73
2023/07/08 05:07:49;;;;;;;1.80;1.60;;;;;;;;;;6227836;28;20096;-73
2023/07/08 05:10:49;;;;;;;4.40;2.15;;;;;;;;;;6227702;28;20645;-73
2023/07/08 05:13:50;;;;;;;1.57;1.43;;;;;;;;;;6227450;28;20025;-72
2023/07/08 05:16:50;;;;;;;1.75;1.65;;;;;;;;;;6224861;28;20033;-72
2023/07/08 05:19:51;;;;;;;7.77;1.90;;;;;;;;;;6229993;28;20036;-72
2023/07/08 05:22:51;;;;;;;;;;;;;;;;;;6227183;28;20504;-70
2023/07/08 05:25:51;;;;;;;2.17;1.40;;;;;;;;;;6227692;28;20000;-71
2023/07/08 05:28:51;;;;;;;2.43;1.40;;;;;;;;;;6228355;28;20025;-71
2023/07/08 05:31:52;;;;;;;;;;;;;;;;;;6227451;28;20060;-71
2023/07/08 05:34:52;;;;;;;2.10;1.35;;;;;;;;;;6229704;28;19951;-70
2023/07/08 05:37:52;;;;;;;1.48;1.38;;;;;;;;;;6226657;28;20078;-71
2023/07/08 05:40:57;;;;;;;2.77;1.33;;;;;;;;;;6224253;28;20040;-71
2023/07/08 05:43:57;;;;;;;2.40;1.65;;;;;;;;;;6218506;28;21703;-72
2023/07/08 05:46:57;;;;;;;2.27;2.07;;;;;;;;;;6228979;28;20556;-71
2023/07/08 05:49:57;;;;;;;;;;;;;;;;;;6225617;28;20482;-71
2023/07/08 05:52:58;;;;;;;2.03;1.35;;;;;;;;;;6224730;28;20451;-70
2023/07/08 05:55:58;;;;;;;;;;;;;;;;;;6225957;28;20025;-70
2023/07/08 05:58:58;;;;;;;2.72;1.42;;;;;;;;;;6222684;28;20059;-70
2023/07/08 06:01:58;;;;;;;;;;;;;;;;;;6228676;28;20022;-71
2023/07/08 06:04:58;;;;;;;3.08;1.40;;;;;;;;;;6226642;28;20373;-71
2023/07/08 06:07:58;;;;;;;;;;;;;;;;;;6234371;28;20083;-70
2023/07/08 06:10:59;;;;;;;4.35;1.90;;;;;;;;;;6238770;28;20357;-70
2023/07/08 06:13:59;;;;;;;;;;;;;;;;;;6241622;28;20053;-72
2023/07/08 06:16:59;;;;;;;3.45;1.67;;;;;;;;;;6240088;28;19911;-71
2023/07/08 06:19:59;;;;;;;2.87;1.90;;;;;;;;;;6240559;28;20076;-72
2023/07/08 06:22:59;;;;;;;;;;;;;;;;;;6235701;28;20781;-72
2023/07/08 06:26:00;;;;;;;1.77;1.48;;;;;;;;;;6240710;28;19917;-72
2023/07/08 06:29:00;;;;;;;2.50;2.13;;;;;;;;;;6239255;28;20017;-74
2023/07/08 06:32:02;;;;;;;2.57;2.30;;;;;;;;;;6240221;28;20028;-74
2023/07/08 06:35:02;;;;;;;3.05;2.22;;;;;;;;;;6235563;28;20629;-74
2023/07/08 06:38:02;;;;;;;2.47;2.05;;;;;;;;;;6240738;28;20121;-73
2023/07/08 06:41:02;;;;;;;3.15;2.20;;;;;;;;;;6236439;28;20385;-73
2023/07/08 06:44:03;;;;;;;2.87;2.17;;;;;;;;;;6238889;28;20028;-73
2023/07/08 06:47:03;;;;;;;2.30;1.98;;;;;;;;;;6233835;28;20287;-73
2023/07/08 06:50:04;;;;;;;2.83;2.10;;;;;;;;;;6236844;28;20025;-73
2023/07/08 06:53:04;;;;;;;3.10;1.92;;;;;;;;;;6240995;28;20051;-73
2023/07/08 06:56:04;;;;;;;3.07;2.60;;;;;;;;;;6231523;28;20451;-72
2023/07/08 06:59:05;;;;;;;2.70;2.40;;;;;;;;;;6240651;28;20351;-72
2023/07/08 07:02:05;;;;;;;3.15;2.30;;;;;;;;;;6227907;28;20663;-72
2023/07/08 07:05:05;;;;;;;3.65;2.28;;;;;;;;;;6224498;28;20013;-72
2023/07/08 07:08:07;;;;;;;3.05;2.22;;;;;;;;;;6229965;28;20025;-71
2023/07/08 07:11:07;;;;;;;2.83;2.15;;;;;;;;;;6227928;28;20459;-71
2023/07/08 07:14:08;;;;;;;3.13;2.17;;;;;;;;;;6231964;28;20029;-70
2023/07/08 07:17:08;;;;;;;5.32;2.40;;;;;;;;;;6232869;28;20280;-70
2023/07/08 07:20:09;;;;;;;2.47;2.27;;;;;;;;;;6226977;28;20411;-70
2023/07/08 07:23:09;;;;;;;2.53;2.25;;;;;;;;;;6223667;28;20036;-70
2023/07/08 07:26:09;;;;;;;3.40;2.40;;;;;;;;;;6224952;28;20060;-70
2023/07/08 07:29:10;;;;;;;6.80;3.72;;;;;;;;;;6229781;28;20009;-70
2023/07/08 07:32:10;;;;;;;2.30;2.10;;;;;;;;;;6239650;28;20501;-70
2023/07/08 07:35:14;;;;;;;3.00;1.88;;;;;;;;;;6231359;28;20029;-70
2023/07/08 07:38:16;;;;;;;4.22;2.90;;;;;;;;;;6229257;28;20509;-70
2023/07/08 07:41:16;;;;;;;3.60;2.50;;;;;;;;;;6226241;28;20029;-70
2023/07/08 07:44:16;;;;;;;2.83;2.30;;;;;;;;;;6226690;28;20127;-70
2023/07/08 07:47:16;;;;;;;2.63;2.40;;;;;;;;;;6229735;28;20289;-69
2023/07/08 07:50:17;;;;;;;3.07;2.60;;;;;;;;;;6227116;28;20029;-68
2023/07/08 07:53:17;;;;;;;2.80;2.35;;;;;;;;;;6226814;28;20120;-69
2023/07/08 07:56:17;;;;;;;3.05;2.40;;;;;;;;;;6228529;28;20056;-70
2023/07/08 07:59:18;;;;;;;2.97;2.13;;;;;;;;;;6230591;28;20711;-70
2023/07/08 08:02:18;;;;;;;2.75;2.55;;;;;;;;;;6227151;28;20236;-70
2023/07/08 08:05:19;;;;;;;6.25;2.33;;;;;;;;;;6226190;28;20093;-70
2023/07/08 08:08:19;;;;;;;4.07;2.38;;;;;;;;;;6223596;28;20018;-70
2023/07/08 08:11:21;;;;;;;3.03;2.22;;;;;;;;;;6222866;28;20044;-70
2023/07/08 08:14:21;;;;;;;3.05;2.47;;;;;;;;;;6224433;28;20039;-70
2023/07/08 08:17:22;;;;;;;3.45;2.55;;;;;;;;;;6227730;28;21151;-70
2023/07/08 08:20:23;;;;;;;4.78;3.03;;;;;;;;;;6233179;28;20108;-71
2023/07/08 08:23:24;;;;;;;4.93;2.67;;;;;;;;;;6229571;28;20639;-70
2023/07/08 08:26:24;;;;;;;2.80;2.50;;;;;;;;;;6234190;28;20021;-68
2023/07/08 08:29:24;;;;;;;3.30;2.70;;;;;;;;;;6234040;28;20777;-72
2023/07/08 08:32:24;;;;;;;5.53;2.75;;;;;;;;;;6233885;28;20500;-72
2023/07/08 08:35:25;;;;;;;4.70;2.63;;;;;;;;;;6238622;28;20021;-72
2023/07/08 08:38:26;;;;;;;7.72;2.80;;;;;;;;;;6239221;28;20026;-72
2023/07/08 08:41:30;;;;;;;3.13;2.50;;;;;;;;;;6238986;28;20097;-73
2023/07/08 08:44:33;;;;;;;3.58;2.88;;;;;;;;;;6232952;28;20014;-72
2023/07/08 08:47:42;;;;;;;3.75;2.72;;;;;;;;;;6239336;28;20374;-71
2023/07/08 08:50:45;;;;;;;4.72;2.90;;;;;;;;;;6239361;28;20093;-71
2023/07/08 08:53:45;;;;;;;5.22;2.67;;;;;;;;;;6239373;28;20009;-72
2023/07/08 08:57:01;;;;;;;3.00;2.65;;;;;;;;;;6233407;28;20344;-71
2023/07/08 09:00:03;;;;;;;4.90;2.65;;;;;;;;;;6240057;28;20401;-70
2023/07/08 09:03:09;;;;;;;2.95;2.67;;;;;;;;;;6234346;28;20029;-69
2023/07/08 09:06:11;;;;;;;3.25;2.60;;;;;;;;;;6230806;28;20022;-71
2023/07/08 09:09:21;;;;;;;2.35;2.15;;;;;;;;;;6233770;28;20112;-71
2023/07/08 09:12:24;;;;;;;3.45;2.40;;;;;;;;;;6232231;28;20036;-72
2023/07/08 09:15:25;;;;;;;3.17;2.47;;;;;;;;;;6228708;28;20528;-73
2023/07/08 09:18:31;;;;;;;3.13;2.60;;;;;;;;;;6240178;28;20021;-70
2023/07/08 09:21:37;;;;;;;5.43;2.38;;;;;;;;;;6233889;28;20017;-71
2023/07/08 09:24:46;;;;;;;2.60;2.40;;;;;;;;;;6230485;28;20032;-69
2023/07/08 09:27:47;;;;;;;3.22;2.42;;;;;;;;;;6225923;28;20021;-71
2023/07/08 09:30:48;;;;;;;2.92;2.40;;;;;;;;;;6221395;28;20485;-71
2023/07/08 09:33:50;;;;;;;2.30;2.10;;;;;;;;;;6230915;28;20036;-71
2023/07/08 09:36:51;;;;;;;5.75;2.50;;;;;;;;;;6238319;28;20028;-71
2023/07/08 09:39:55;;;;;;;5.93;2.65;;;;;;;;;;6239646;28;20106;-72
2023/07/08 09:43:00;;;;;;;3.03;2.63;;;;;;;;;;5538134;28;10000827;-72
2023/07/08 09:46:00;;;;;;;3.47;2.80;;;;;;;;;;6233149;28;20033;-71
2023/07/08 09:49:08;;;;;;;2.80;2.47;;;;;;;;;;6235734;28;20465;-72
2023/07/08 09:52:12;;;;;;;3.05;2.60;;;;;;;;;;6241473;28;20267;-71
2023/07/08 09:55:12;;;;;;;3.97;2.35;;;;;;;;;;6244391;28;20088;-67
2023/07/08 09:58:14;;;;;;;3.72;2.90;;;;;;;;;;6240993;28;20134;-70
2023/07/08 10:01:21;;;;;;;3.90;2.90;;;;;;;;;;6244021;28;20047;-70
2023/07/08 10:04:21;;;;;;;2.65;2.45;;;;;;;;;;6245756;28;20021;-70
2023/07/08 10:07:22;;;;;;;2.63;2.43;;;;;;;;;;6243722;28;20026;-70
2023/07/08 10:10:26;;;;;;;2.90;2.40;;;;;;;;;;6239954;28;20507;-70
2023/07/08 10:13:40;;;;;;;3.08;2.58;;;;;;;;;;6243939;28;20044;-70
2023/07/08 10:16:40;;;;;;;3.25;2.70;;;;;;;;;;6239211;28;20056;-70
2023/07/08 10:19:40;;;;;;;2.80;2.40;;;;;;;;;;6246088;28;20049;-71
2023/07/08 10:22:47;;;;;;;3.38;2.63;;;;;;;;;;6242053;28;20406;-70
2023/07/08 10:25:53;;;;;;;2.67;2.38;;;;;;;;;;6244566;28;20018;-71
2023/07/08 10:29:03;;;;;;;3.53;2.30;;;;;;;;;;6244894;28;20017;-70
2023/07/08 10:32:21;;;;;;;3.95;2.45;;;;;;;;;;6243834;28;20013;-70
2023/07/08 10:35:27;;;;;;;3.20;2.40;;;;;;;;;;6239835;28;20071;-70
2023/07/08 10:38:33;;;;;;;3.63;2.45;;;;;;;;;;6245245;28;20021;-69
2023/07/08 10:41:43;;;;;;;2.58;2.38;;;;;;;;;;6244573;28;20451;-70
2023/07/08 10:44:47;;;;;;;2.72;2.28;;;;;;;;;;6244555;28;20116;-70
2023/07/08 10:47:56;;;;;;;2.22;2.03;;;;;;;;;;6247775;28;20013;-70
2023/07/08 10:50:56;;;;;;;;;;;;;;;;;;6243962;28;20018;-71
2023/07/08 10:53:56;;;;;;;2.88;2.05;;;;;;;;;;6244062;28;19940;-70
2023/07/08 10:57:14;;;;;;;2.40;2.20;;;;;;;;;;6245788;28;20025;-71
2023/07/08 11:00:18;;;;;;;2.67;2.33;;;;;;;;;;6244548;28;20547;-70
2023/07/08 11:03:37;;;;;;;2.60;2.40;;;;;;;;;;6244392;28;20560;-71
2023/07/08 11:06:43;;;;;;;2.38;2.17;;;;;;;;;;6243186;28;20029;-68
2023/07/08 11:09:48;;;;;;;2.42;2.15;;;;;;;;;;6244823;28;20213;-70
2023/07/08 11:12:54;;;;;;;3.83;2.33;;;;;;;;;;6244039;28;20482;-72
2023/07/08 11:15:57;;;;;;;2.45;2.25;;;;;;;;;;6241593;28;20496;-72
2023/07/08 11:19:04;;;;;;;2.33;2.13;;;;;;;;;;6243592;28;20047;-70
2023/07/08 11:22:09;;;;;;;2.78;2.10;;;;;;;;;;6244423;28;20025;-71
2023/07/08 11:25:16;;;;;;;2.80;2.33;;;;;;;;;;6242909;28;20040;-71
2023/07/08 11:28:18;;;;;;;2.55;2.35;;;;;;;;;;6244278;28;20157;-71
2023/07/08 11:31:19;;;;;;;3.63;2.42;;;;;;;;;;6243138;28;20405;-71
2023/07/08 11:34:20;;;;;;;2.05;1.90;;;;;;;;;;6242656;28;20033;-71
2023/07/08 11:37:21;;;;;;;2.78;2.30;;;;;;;;;;6243392;28;20332;-71
2023/07/08 11:40:23;;;;;;;2.63;2.42;;;;;;;;;;6244432;28;20029;-69
2023/07/08 11:43:25;;;;;;;2.15;2.00;;;;;;;;;;5895571;28;10000046;-70
2023/07/08 11:46:28;;;;;;;2.78;2.10;;;;;;;;;;6241334;28;20427;-70
2023/07/08 11:49:28;;;;;;;2.05;1.95;;;;;;;;;;6242862;28;20120;-70
2023/07/08 11:52:29;;;;;;;2.40;2.10;;;;;;;;;;6233904;28;20423;-69
2023/07/08 11:55:37;;;;;;;3.70;2.22;;;;;;;;;;6231732;28;20434;-71
2023/07/08 11:58:51;;;;;;;2.00;1.90;;;;;;;;;;6240583;28;20389;-71
2023/07/08 12:02:01;;;;;;;2.17;2.08;;;;;;;;;;6242152;28;20507;-69
2023/07/08 12:05:13;;;;;;;2.53;2.33;;;;;;;;;;6240655;28;20541;-70
2023/07/08 12:08:15;;;;;;;2.83;2.10;;;;;;;;;;6240605;28;20078;-70
2023/07/08 12:11:15;;;;;;;2.28;2.08;;;;;;;;;;6240876;28;20463;-70
2023/07/08 12:14:15;;;;;;;2.40;2.20;;;;;;;;;;6242140;28;20013;-71
2023/07/08 12:17:16;;;;;;;2.25;2.10;;;;;;;;;;6242527;28;20029;-71
2023/07/08 12:20:24;;;;;;;2.40;2.20;;;;;;;;;;6240348;28;20116;-69
2023/07/08 12:23:25;;;;;;;2.53;2.20;;;;;;;;;;6242246;28;20024;-71
2023/07/08 12:26:26;;;;;;;2.55;2.15;;;;;;;;;;6240314;28;20036;-70
2023/07/08 12:29:26;;;;;;;2.63;2.43;;;;;;;;;;6243149;28;20029;-70
2023/07/08 12:32:28;;;;;;;2.30;2.10;;;;;;;;;;6241696;28;20048;-71
2023/07/08 12:35:30;;;;;;;3.17;2.35;;;;;;;;;;6240746;28;20511;-71
2023/07/08 12:38:46;;;;;;;2.88;2.30;;;;;;;;;;6241004;28;20051;-72
2023/07/08 12:41:47;;;;;;;3.55;2.13;;;;;;;;;;6242085;28;20036;-70
2023/07/08 12:44:48;;;;;;;2.60;2.40;;;;;;;;;;6240103;28;20120;-71
2023/07/08 12:47:49;;;;;;;2.42;2.15;;;;;;;;;;6239405;28;20028;-69
2023/07/08 12:50:50;;;;;;;2.35;2.15;;;;;;;;;;6239704;28;20453;-70
2023/07/08 12:53:51;;;;;;;2.72;2.53;;;;;;;;;;6237166;28;20041;-70
2023/07/08 12:56:51;;;;;;;3.05;2.72;;;;;;;;;;6234990;28;20021;-70
2023/07/08 12:59:51;;;;;;;2.88;2.67;;;;;;;;;;6242924;28;20387;-70
2023/07/08 13:02:56;;;;;;;3.13;2.50;;;;;;;;;;6240379;28;20021;-70
2023/07/08 13:05:57;;;;;;;4.60;2.53;;;;;;;;;;6240220;28;20021;-70
2023/07/08 13:09:02;;;;;;;2.70;2.50;;;;;;;;;;6239540;28;20410;-71
2023/07/08 13:12:22;;;;;;;2.45;2.25;;;;;;;;;;6242609;28;20099;-71
2023/07/08 13:15:30;;;;;;;2.70;2.50;;;;;;;;;;6230243;28;20041;-70
2023/07/08 13:18:35;;;;;;;2.55;2.35;;;;;;;;;;6241031;28;20017;-70
2023/07/08 13:21:35;;;;;;;2.58;2.47;;;;;;;;;;6243944;28;20035;-70
2023/07/08 13:24:37;;;;;;;2.90;2.60;;;;;;;;;;6254978;28;20018;-70
2023/07/08 13:27:38;;;;;;;2.55;2.30;;;;;;;;;;6248150;28;20134;-70
2023/07/08 13:30:38;;;;;;;2.50;2.30;;;;;;;;;;6238558;28;20025;-70
2023/07/08 13:33:38;;;;;;;3.47;2.77;;;;;;;;;;6241385;28;20030;-68
2023/07/08 13:36:40;;;;;;;2.60;2.40;;;;;;;;;;6235903;28;20029;-70
2023/07/08 13:39:43;;;;;;;3.67;2.33;;;;;;;;;;6242309;28;20017;-70
2023/07/08 13:42:47;;;;;;;2.33;2.22;;;;;;;;;;6242562;28;20079;-70
2023/07/08 13:45:48;;;;;;;3.13;2.53;;;;;;;;;;6234578;28;20104;-70
2023/07/08 13:48:48;;;;;;;3.00;2.80;;;;;;;;;;6240423;28;20039;-69
2023/07/08 13:51:48;;;;;;;2.83;2.63;;;;;;;;;;6238658;28;20026;-70
2023/07/08 13:54:58;;;;;;;3.40;3.10;;;;;;;;;;6241060;28;20116;-71
2023/07/08 13:58:00;;;;;;;3.10;2.90;;;;;;;;;;6237416;28;20120;-71
2023/07/08 14:01:01;;;;;;;2.58;2.38;;;;;;;;;;6241609;28;20013;-69
2023/07/08 14:04:02;;;;;;;3.77;3.47;;;;;;;;;;6236079;28;20122;-68
2023/07/08 14:07:02;;;;;;;2.97;2.78;;;;;;;;;;6236712;28;20025;-70
2023/07/08 14:10:12;;;;;;;3.22;3.03;;;;;;;;;;6241128;28;20084;-70
2023/07/08 14:13:13;;;;;;;2.92;2.72;;;;;;;;;;6233858;28;20116;-70
2023/07/08 14:16:23;;;;;;;2.77;2.57;;;;;;;;;;6237427;28;20017;-70
2023/07/08 14:19:26;;;;;;;2.50;2.30;;;;;;;;;;6241684;28;20496;-70
2023/07/08 14:22:28;;;;;;;2.78;2.58;;;;;;;;;;6237623;28;20026;-70
2023/07/08 14:25:28;;;;;;;2.80;2.60;;;;;;;;;;6237752;28;20482;-70
2023/07/08 14:28:28;;;;;;;3.10;2.80;;;;;;;;;;6243042;28;20024;-70
2023/07/08 14:31:28;;;;;;;2.53;2.43;;;;;;;;;;6244926;28;20021;-70
2023/07/08 14:34:29;;;;;;;2.83;2.40;;;;;;;;;;6243912;28;20017;-70
2023/07/08 14:37:30;;;;;;;2.50;2.08;;;;;;;;;;6242488;28;20029;-70
2023/07/08 14:40:34;;;;;;;4.05;2.30;;;;;;;;;;6244185;28;20092;-69
2023/07/08 14:43:35;;;;;;;3.63;2.40;;;;;;;;;;6244924;28;20013;-71
2023/07/08 14:46:35;;;;;;;2.70;2.50;;;;;;;;;;6230114;28;20021;-70
2023/07/08 14:49:35;;;;;;;3.23;2.27;;;;;;;;;;6242670;28;20513;-70
2023/07/08 14:52:35;;;;;;;3.10;2.57;;;;;;;;;;6243189;28;20029;-70
2023/07/08 14:55:36;;;;;;;1.90;1.80;;;;;;;;;;6239720;28;20029;-71
2023/07/08 14:58:38;;;;;;;2.10;2.00;;;;;;;;;;6242509;28;20059;-71
2023/07/08 15:01:39;;;;;;;2.33;2.13;;;;;;;;;;6243711;28;20041;-70
2023/07/08 15:04:39;;;;;;;2.25;2.05;;;;;;;;;;6244791;28;20033;-71
2023/07/08 15:07:40;;;;;;;2.10;2.00;;;;;;;;;;6242652;28;20403;-69
2023/07/08 15:10:44;;;;;;;2.10;2.00;;;;;;;;;;6244785;28;20033;-71
2023/07/08 15:13:45;;;;;;;2.50;2.00;;;;;;;;;;6242021;28;20063;-70
2023/07/08 15:16:45;;;;;;;2.30;2.10;;;;;;;;;;6242137;28;20021;-70
2023/07/08 15:19:45;;;;;;;3.40;2.20;;;;;;;;;;6242531;28;20500;-70
2023/07/08 15:22:46;;;;;;;2.37;1.93;;;;;;;;;;6243740;28;20013;-70
2023/07/08 15:25:47;;;;;;;2.40;2.20;;;;;;;;;;6241989;28;20545;-70
2023/07/08 15:28:49;;;;;;;2.17;2.08;;;;;;;;;;6244757;28;20017;-72
2023/07/08 15:31:49;;;;;;;2.40;2.20;;;;;;;;;;6235359;28;20119;-71
2023/07/08 15:34:49;;;;;;;2.43;2.20;;;;;;;;;;6240561;28;20033;-71
2023/07/08 15:37:49;;;;;;;2.07;1.90;;;;;;;;;;6239122;28;20401;-71
2023/07/08 15:40:49;;;;;;;1.80;1.70;;;;;;;;;;6244336;28;20018;-72
2023/07/08 15:43:52;;;;;;;3.17;2.03;;;;;;;;;;6242268;28;20470;-71
2023/07/08 15:46:53;;;;;;;1.92;1.63;;;;;;;;;;6242405;28;20056;-72
2023/07/08 15:49:53;;;;;;;2.37;1.70;;;;;;;;;;6243516;28;20021;-69
2023/07/08 15:52:54;;;;;;;2.57;1.83;;;;;;;;;;6243669;28;20745;-72
2023/07/08 15:55:54;;;;;;;2.30;1.83;;;;;;;;;;6238195;28;20520;-72
2023/07/08 15:58:54;;;;;;;2.20;2.00;;;;;;;;;;6244213;28;20463;-72
2023/07/08 16:01:56;;;;;;;1.83;1.70;;;;;;;;;;6242344;28;20520;-72
2023/07/08 16:04:57;;;;;;;2.10;1.90;;;;;;;;;;6255342;28;20033;-72
2023/07/08 16:07:57;;;;;;;1.77;1.67;;;;;;;;;;6261301;28;20017;-71
2023/07/08 16:10:58;;;;;;;2.27;2.07;;;;;;;;;;6250177;28;20032;-72
2023/07/08 16:13:58;;;;;;;3.15;1.90;;;;;;;;;;6241949;28;20259;-72
2023/07/08 16:16:59;;;;;;;3.00;1.83;;;;;;;;;;6243389;28;20423;-71
2023/07/08 16:19:59;;;;;;;1.77;1.67;;;;;;;;;;6243736;28;20263;-71
2023/07/08 16:22:59;;;;;;;2.60;1.97;;;;;;;;;;6239584;28;20358;-73
2023/07/08 16:26:01;;;;;;;3.35;2.25;;;;;;;;;;6235220;28;20068;-71
2023/07/08 16:29:02;;;;;;;2.10;1.88;;;;;;;;;;6234474;28;20446;-71
2023/07/08 16:32:02;;;;;;;3.35;2.00;;;;;;;;;;6242673;28;20059;-71
2023/07/08 16:35:02;;;;;;;2.75;1.80;;;;;;;;;;6239447;28;20500;-70
2023/07/08 16:38:02;;;;;;;5.40;1.97;;;;;;;;;;6242530;28;20059;-71
2023/07/08 16:41:03;;;;;;;3.93;2.30;;;;;;;;;;6241025;28;20280;-71
2023/07/08 16:44:09;;;;;;;2.03;1.90;;;;;;;;;;6232042;28;20030;-71
2023/07/08 16:47:09;;;;;;;2.55;2.03;;;;;;;;;;6228592;28;20025;-72
2023/07/08 16:50:10;;;;;;;2.75;2.20;;;;;;;;;;6241375;28;20045;-70
2023/07/08 16:53:11;;;;;;;2.25;2.00;;;;;;;;;;6235558;28;20171;-70
2023/07/08 16:56:11;;;;;;;2.20;2.00;;;;;;;;;;6237134;28;20429;-69
2023/07/08 16:59:12;;;;;;;2.90;2.03;;;;;;;;;;6235233;28;20028;-71
2023/07/08 17:02:14;;;;;;;2.70;2.20;;;;;;;;;;5886835;28;10000267;-71
2023/07/08 17:05:23;;;;;;;6.07;1.90;;;;;;;;;;6238717;28;20274;-70
2023/07/08 17:08:23;;;;;;;5.68;2.10;;;;;;;;;;6235557;28;20154;-71
2023/07/08 17:11:23;;;;;;;1.73;1.63;;;;;;;;;;6234157;28;20333;-71
2023/07/08 17:14:23;;;;;;;3.50;1.80;;;;;;;;;;6231081;28;20041;-71
2023/07/08 17:17:23;;;;;;;2.20;1.87;;;;;;;;;;6223495;28;20021;-70
2023/07/08 17:20:34;;;;;;;2.13;1.80;;;;;;;;;;6232815;28;20172;-70
2023/07/08 17:23:35;;;;;;;1.70;1.55;;;;;;;;;;6229186;28;20026;-71
2023/07/08 17:26:36;;;;;;;2.20;2.00;;;;;;;;;;6228184;28;20561;-70
2023/07/08 17:29:37;;;;;;;2.17;1.98;;;;;;;;;;6231405;28;20101;-71
2023/07/08 17:32:37;;;;;;;5.70;1.87;;;;;;;;;;6225931;28;20028;-70
2023/07/08 17:35:37;;;;;;;3.28;1.95;;;;;;;;;;6228219;28;20021;-70
2023/07/08 17:38:38;;;;;;;2.00;1.80;;;;;;;;;;6231430;28;20100;-69
2023/07/08 17:41:39;;;;;;;2.50;1.90;;;;;;;;;;6223646;28;20119;-69
2023/07/08 17:44:40;;;;;;;2.72;1.65;;;;;;;;;;6231756;28;20109;-72
2023/07/08 17:47:40;;;;;;;2.22;2.00;;;;;;;;;;6226391;28;20029;-67
2023/07/08 17:50:40;;;;;;;3.05;1.90;;;;;;;;;;6227924;28;20053;-69
2023/07/08 17:53:41;;;;;;;1.70;1.60;;;;;;;;;;6248084;28;20402;-68
2023/07/08 17:56:43;;;;;;;1.93;1.40;;;;;;;;;;6227861;28;20497;-68
2023/07/08 17:59:43;;;;;;;3.08;1.52;;;;;;;;;;6233785;28;20303;-71
2023/07/08 18:02:43;;;;;;;2.03;1.83;;;;;;;;;;6230060;28;20115;-68
2023/07/08 18:05:44;;;;;;;1.98;1.80;;;;;;;;;;6228306;28;20030;-69
2023/07/08 18:08:44;;;;;;;1.93;1.70;;;;;;;;;;6228788;28;20534;-71
2023/07/08 18:11:45;;;;;;;3.10;2.10;;;;;;;;;;6228775;28;20029;-69
2023/07/08 18:14:46;;;;;;;3.25;1.90;;;;;;;;;;6234126;28;20280;-70